Time;durP1;ratioP1;P1;durP2;ratioP2;P2;SDS_P1;SDS_P2;PMS_P1;PMS_P2;Temp;Humidity;BMP_temperature;BMP_pressure;BME280_temperature;BME280_humidity;BME280_pressure;Samples;Min_cycle;Max_cycle;Signal;HPM_P1;HPM_P2
2021/07/10 00:01:51;;;;;;;24.90;13.17;;;15.20;97.30;;;;;;5006879;28;20682;-89
2021/07/10 00:04:16;;;;;;;29.50;14.67;;;15.20;97.30;;;;;;5011824;28;20191;-89
2021/07/10 00:06:42;;;;;;;27.83;15.40;;;15.20;97.30;;;;;;5017494;28;20181;-89
2021/07/10 00:09:09;;;;;;;28.20;15.73;;;15.20;97.30;;;;;;4999961;28;20209;-89
2021/07/10 00:11:35;;;;;;;32.07;15.70;;;15.30;97.30;;;;;;5016038;28;20259;-89
2021/07/10 00:14:00;;;;;;;28.07;15.30;;;15.30;97.30;;;;;;5010995;28;20435;-89
2021/07/10 00:16:26;;;;;;;29.37;15.23;;;15.30;97.30;;;;;;5006583;28;20192;-90
2021/07/10 00:18:51;;;;;;;31.17;17.50;;;15.30;97.30;;;;;;5020759;28;20173;-89
2021/07/10 00:26:20;;;;;;;30.00;15.63;;;15.30;97.30;;;;;;5037250;28;20521;-90
2021/07/10 00:28:45;;;;;;;28.57;15.87;;;15.40;97.30;;;;;;5020627;28;20451;-90
2021/07/10 00:31:11;;;;;;;29.37;16.00;;;15.40;97.30;;;;;;5035227;28;20203;-89
2021/07/10 00:33:37;;;;;;;30.83;16.73;;;15.40;97.30;;;;;;5039179;28;20179;-89
2021/07/10 00:36:06;;;;;;;33.40;17.10;;;15.40;97.30;;;;;;5026559;28;20431;-89
2021/07/10 00:38:32;;;;;;;30.73;15.77;;;15.40;97.30;;;;;;5020907;28;20180;-89
2021/07/10 00:40:58;;;;;;;31.13;16.60;;;15.40;97.30;;;;;;5033213;28;20450;-89
2021/07/10 00:43:23;;;;;;;32.83;17.13;;;15.40;97.30;;;;;;5040330;28;20976;-89
2021/07/10 00:45:49;;;;;;;35.20;17.70;;;15.40;97.30;;;;;;5040733;28;20433;-89
2021/07/10 00:48:18;;;;;;;30.93;16.30;;;15.40;97.30;;;;;;5058234;28;20683;-89
2021/07/10 01:13:09;;;;;;;36.93;18.67;;;15.40;97.30;;;;;;5035175;28;20487;-89
2021/07/10 01:15:34;;;;;;;37.47;18.43;;;15.40;97.30;;;;;;5019525;28;20488;-89
2021/07/10 01:18:00;;;;;;;33.87;17.53;;;15.50;97.30;;;;;;5019496;28;20443;-89
2021/07/10 01:20:28;;;;;;;40.57;19.77;;;15.40;97.30;;;;;;5018790;28;20291;-89
2021/07/10 01:22:56;;;;;;;36.27;18.23;;;15.40;97.30;;;;;;5001634;28;20217;-89
2021/07/10 01:25:25;;;;;;;36.40;18.53;;;15.40;97.30;;;;;;4999359;28;20439;-89
2021/07/10 01:27:51;;;;;;;47.40;19.67;;;15.40;97.30;;;;;;4999734;28;21347;-89
2021/07/10 01:30:20;;;;;;;32.30;17.03;;;15.40;97.30;;;;;;5000451;28;20436;-89
2021/07/10 01:32:48;;;;;;;44.60;18.93;;;15.40;97.30;;;;;;5000130;28;20424;-89
2021/07/10 01:35:14;;;;;;;45.27;19.20;;;15.40;97.30;;;;;;5001008;28;20424;-89
2021/07/10 01:37:42;;;;;;;35.93;19.87;;;15.40;97.30;;;;;;5000816;28;20428;-89
2021/07/10 01:40:09;;;;;;;38.30;19.07;;;15.40;97.30;;;;;;5042478;22;20444;-88
2021/07/10 01:42:34;;;;;;;42.33;20.50;;;15.40;97.30;;;;;;5018122;28;20439;-89
2021/07/10 01:45:01;;;;;;;36.63;18.60;;;15.40;97.30;;;;;;5019338;28;20498;-89
2021/07/10 01:47:26;;;;;;;38.57;18.87;;;15.40;97.30;;;;;;5018264;28;20235;-89
2021/07/10 01:49:53;;;;;;;39.07;19.77;;;15.40;97.30;;;;;;5019830;28;20775;-89
2021/07/10 01:52:18;;;;;;;36.20;19.87;;;15.50;97.30;;;;;;5002168;28;20227;-89
2021/07/10 01:54:44;;;;;;;44.40;20.10;;;15.50;97.30;;;;;;5001671;28;20428;-89
2021/07/10 01:57:10;;;;;;;35.50;19.63;;;15.40;97.30;;;;;;5018275;28;20208;-89
2021/07/10 01:59:37;;;;;;;43.10;19.97;;;15.40;97.30;;;;;;5000617;28;20223;-89
2021/07/10 02:02:06;;;;;;;40.90;19.20;;;15.50;97.30;;;;;;5000638;28;20894;-89
2021/07/10 02:04:32;;;;;;;37.20;19.43;;;15.50;97.30;;;;;;4999914;28;20456;-89
2021/07/10 02:06:59;;;;;;;54.53;22.33;;;15.50;97.30;;;;;;5017645;28;20498;-89
2021/07/10 02:09:25;;;;;;;44.93;21.70;;;15.40;97.30;;;;;;4999362;28;20466;-89
2021/07/10 02:11:51;;;;;;;50.97;22.77;;;15.40;97.30;;;;;;5003528;28;21013;-89
2021/07/10 02:14:18;;;;;;;43.87;22.23;;;15.50;97.30;;;;;;5002960;28;20507;-89
2021/07/10 02:16:45;;;;;;;48.10;22.70;;;15.40;97.30;;;;;;5019916;28;20193;-89
2021/07/10 02:19:11;;;;;;;46.37;22.50;;;15.40;97.30;;;;;;5002765;28;20408;-89
2021/07/10 02:21:37;;;;;;;45.50;21.90;;;15.40;97.30;;;;;;5003029;28;20467;-89
2021/07/10 02:24:07;;;;;;;51.23;22.47;;;15.40;97.30;;;;;;4986362;28;20243;-89
2021/07/10 02:26:34;;;;;;;36.90;19.30;;;15.40;97.30;;;;;;5020299;28;20440;-89
2021/07/10 02:29:00;;;;;;;40.27;19.73;;;15.40;97.30;;;;;;5002694;28;20463;-89
2021/07/10 02:31:26;;;;;;;41.20;17.73;;;15.30;97.30;;;;;;5002114;28;20445;-88
2021/07/10 02:33:52;;;;;;;36.87;18.50;;;15.30;97.30;;;;;;5002211;28;20423;-88
2021/07/10 02:36:18;;;;;;;36.27;17.67;;;15.30;97.30;;;;;;5002969;28;20575;-89
2021/07/10 02:38:44;;;;;;;37.30;17.20;;;15.30;97.30;;;;;;5001471;28;20522;-89
2021/07/10 02:41:09;;;;;;;29.80;16.23;;;15.30;97.30;;;;;;5019296;28;20455;-89
2021/07/10 02:43:35;;;;;;;33.47;17.27;;;15.30;97.30;;;;;;5002731;28;20650;-87
2021/07/10 02:46:00;;;;;;;34.17;16.70;;;15.30;97.30;;;;;;5002041;28;20654;-89
2021/07/10 02:48:26;;;;;;;27.70;15.37;;;15.20;97.30;;;;;;5002173;28;20675;-89
2021/07/10 02:50:51;;;;;;;34.47;15.80;;;15.20;97.30;;;;;;5002333;28;20212;-89
2021/07/10 02:53:17;;;;;;;34.73;16.93;;;15.20;97.30;;;;;;5002498;28;20820;-89
2021/07/10 02:55:42;;;;;;;33.10;15.63;;;15.20;97.30;;;;;;5002559;28;20226;-88
2021/07/10 02:58:08;;;;;;;31.93;15.93;;;15.20;97.30;;;;;;5002392;28;20177;-89
2021/07/10 03:00:34;;;;;;;25.47;15.00;;;15.20;97.30;;;;;;5002247;28;20209;-88
2021/07/10 03:03:00;;;;;;;30.43;14.47;;;15.10;97.30;;;;;;5002742;28;20183;-89
2021/07/10 03:05:27;;;;;;;25.70;14.87;;;15.10;97.30;;;;;;5001793;28;20448;-88
2021/07/10 03:07:53;;;;;;;25.47;15.23;;;15.10;97.30;;;;;;5019895;28;20476;-89
2021/07/10 03:10:21;;;;;;;27.13;15.13;;;15.10;97.30;;;;;;5002948;28;20957;-88
2021/07/10 03:12:47;;;;;;;23.83;14.73;;;15.10;97.30;;;;;;5002513;28;20177;-88
2021/07/10 03:15:15;;;;;;;24.50;13.47;;;15.00;97.30;;;;;;5002218;28;20566;-88
2021/07/10 03:17:42;;;;;;;27.63;14.20;;;15.00;97.30;;;;;;5002693;28;20466;-89
2021/07/10 03:20:09;;;;;;;25.10;13.87;;;15.00;97.30;;;;;;5019493;28;20431;-89
2021/07/10 03:22:35;;;;;;;25.87;13.40;;;15.00;97.30;;;;;;5001970;28;20424;-89
2021/07/10 03:25:02;;;;;;;28.90;13.50;;;15.00;97.30;;;;;;5002603;28;20781;-89
2021/07/10 03:27:28;;;;;;;22.43;13.40;;;15.00;97.30;;;;;;5000860;28;20177;-89
2021/07/10 03:29:53;;;;;;;26.93;13.40;;;15.00;97.30;;;;;;5000829;28;20563;-89
2021/07/10 03:32:19;;;;;;;24.33;13.73;;;15.00;97.30;;;;;;5000717;28;20232;-89
2021/07/10 03:34:46;;;;;;;33.10;14.20;;;15.00;97.30;;;;;;5000516;28;20185;-89
2021/07/10 03:37:12;;;;;;;22.63;12.90;;;15.00;97.30;;;;;;5000362;28;20174;-89
2021/07/10 03:39:37;;;;;;;29.80;13.47;;;15.00;97.30;;;;;;5018703;28;20465;-88
2021/07/10 03:42:03;;;;;;;24.40;13.20;;;15.00;97.30;;;;;;5000155;28;20274;-89
2021/07/10 03:44:29;;;;;;;28.47;13.10;;;15.00;97.30;;;;;;5000321;28;20182;-88
2021/07/10 03:46:54;;;;;;;25.77;12.50;;;14.90;97.30;;;;;;5017287;28;20188;-88
2021/07/10 03:49:20;;;;;;;27.43;14.30;;;14.90;97.30;;;;;;5009486;28;20221;-88
2021/07/10 03:51:45;;;;;;;26.97;13.63;;;14.90;97.30;;;;;;5017885;28;20197;-89
2021/07/10 03:54:11;;;;;;;22.40;13.07;;;14.90;97.30;;;;;;4999988;28;20182;-89
2021/07/10 03:56:36;;;;;;;23.70;12.30;;;14.90;97.30;;;;;;4999929;28;20192;-89
2021/07/10 03:59:02;;;;;;;22.33;12.67;;;14.90;97.30;;;;;;5000177;28;20264;-89
2021/07/10 04:01:28;;;;;;;30.27;13.50;;;14.90;97.30;;;;;;5000457;28;20200;-88
2021/07/10 04:03:53;;;;;;;24.80;13.90;;;14.90;97.30;;;;;;5001312;28;20420;-88
2021/07/10 04:06:19;;;;;;;27.30;13.30;;;14.90;97.30;;;;;;5001297;28;20216;-88
2021/07/10 04:08:44;;;;;;;27.20;13.80;;;14.90;97.30;;;;;;5018058;28;20207;-88
2021/07/10 04:11:10;;;;;;;30.73;15.03;;;14.90;97.30;;;;;;5007741;28;20197;-88
2021/07/10 04:13:36;;;;;;;29.90;13.43;;;14.90;97.30;;;;;;5019823;28;20268;-88
2021/07/10 04:16:01;;;;;;;23.93;13.10;;;14.90;97.30;;;;;;5020979;28;20627;-88
2021/07/10 04:18:27;;;;;;;23.57;12.93;;;14.90;97.30;;;;;;5012993;28;20425;-88
2021/07/10 04:20:53;;;;;;;38.40;14.47;;;14.90;97.30;;;;;;5000434;28;20251;-88
2021/07/10 04:23:20;;;;;;;28.00;13.27;;;14.90;97.30;;;;;;5017960;28;20576;-88
2021/07/10 04:25:45;;;;;;;20.53;12.97;;;14.90;97.30;;;;;;5018610;28;20420;-87
2021/07/10 04:28:11;;;;;;;29.07;13.60;;;14.90;97.30;;;;;;5001294;28;20471;-88
2021/07/10 04:30:37;;;;;;;27.40;13.37;;;14.80;97.30;;;;;;5001170;28;20264;-89
2021/07/10 04:33:03;;;;;;;27.37;13.50;;;14.90;97.30;;;;;;5000820;28;20185;-88
2021/07/10 04:35:28;;;;;;;25.03;12.83;;;14.90;97.30;;;;;;5001046;28;20184;-88
2021/07/10 04:37:53;;;;;;;25.17;13.53;;;14.90;97.30;;;;;;5000813;28;20185;-88
2021/07/10 04:40:19;;;;;;;21.60;13.47;;;14.90;97.30;;;;;;5000741;28;20209;-88
2021/07/10 04:42:45;;;;;;;34.63;13.90;;;14.90;97.30;;;;;;5009303;28;20208;-89
2021/07/10 04:45:12;;;;;;;23.07;11.83;;;14.90;97.30;;;;;;5020003;28;20176;-89
2021/07/10 04:47:37;;;;;;;19.53;12.80;;;15.00;97.30;;;;;;5019155;28;20602;-88
2021/07/10 04:50:05;;;;;;;29.77;13.57;;;15.00;97.30;;;;;;5019091;28;20506;-89
2021/07/10 04:52:30;;;;;;;38.03;12.73;;;15.00;97.30;;;;;;5019257;28;20594;-89
2021/07/10 04:54:57;;;;;;;25.27;12.60;;;15.00;97.30;;;;;;5019617;28;20411;-88
2021/07/10 04:57:22;;;;;;;21.80;12.73;;;15.00;97.30;;;;;;5019695;28;20168;-90
2021/07/10 04:59:48;;;;;;;27.33;13.33;;;15.00;97.30;;;;;;5019847;28;20424;-89
2021/07/10 05:02:13;;;;;;;24.13;12.57;;;14.90;97.30;;;;;;5018780;28;20423;-88
2021/07/10 05:04:41;;;;;;;23.27;11.63;;;15.00;97.30;;;;;;5020632;28;20181;-87
2021/07/10 05:12:29;;;;;;;20.80;12.40;;;15.00;97.30;;;;;;5024377;23;21002;-83
2021/07/10 05:14:59;;;;;;;24.50;12.20;;;15.00;97.30;;;;;;5019363;28;20408;-83
2021/07/10 05:17:28;;;;;;;25.63;13.80;;;15.00;97.30;;;;;;4999564;28;20170;-82
2021/07/10 05:19:53;;;;;;;23.73;13.40;;;15.10;97.30;;;;;;5000413;28;20424;-81
2021/07/10 05:22:19;;;;;;;28.70;12.97;;;15.10;97.30;;;;;;4998837;28;20428;-81
2021/07/10 05:24:45;;;;;;;43.10;13.53;;;15.20;97.30;;;;;;5000275;28;20359;-81
2021/07/10 05:27:11;;;;;;;27.10;13.27;;;15.20;97.30;;;;;;4999630;28;20184;-82
2021/07/10 05:29:37;;;;;;;31.90;12.73;;;15.20;97.30;;;;;;5001911;28;20452;-80
2021/07/10 05:32:03;;;;;;;20.47;11.77;;;15.20;97.30;;;;;;5002442;28;20193;-81
2021/07/10 05:34:29;;;;;;;24.60;12.70;;;15.30;97.30;;;;;;5002501;28;20166;-81
2021/07/10 05:36:55;;;;;;;27.23;12.83;;;15.30;97.30;;;;;;5002157;28;20446;-80
2021/07/10 05:39:21;;;;;;;24.53;12.63;;;15.30;97.30;;;;;;5011337;28;20248;-81
2021/07/10 05:41:47;;;;;;;30.37;13.60;;;15.40;97.30;;;;;;5000752;28;20456;-81
2021/07/10 05:44:13;;;;;;;28.70;13.30;;;15.50;97.30;;;;;;4998508;28;20812;-81
2021/07/10 05:46:40;;;;;;;29.43;13.60;;;15.50;97.30;;;;;;4987781;28;20188;-81
2021/07/10 05:49:06;;;;;;;32.17;12.73;;;15.60;97.30;;;;;;4990326;28;21050;-82
2021/07/10 05:51:32;;;;;;;28.80;13.90;;;15.60;97.30;;;;;;4989463;28;20803;-82
2021/07/10 05:53:58;;;;;;;22.60;13.37;;;15.70;97.30;;;;;;5005916;28;20418;-82
2021/07/10 05:56:24;;;;;;;25.60;14.77;;;15.70;97.30;;;;;;4991965;28;20371;-81
2021/07/10 05:58:49;;;;;;;25.33;13.47;;;15.80;97.30;;;;;;5007914;28;20533;-82
2021/07/10 06:01:15;;;;;;;27.00;12.07;;;15.90;97.30;;;;;;4990221;28;21415;-82
2021/07/10 06:03:41;;;;;;;25.37;13.60;;;15.90;97.30;;;;;;4992166;28;20193;-82
2021/07/10 06:06:06;;;;;;;34.60;14.53;;;16.00;97.30;;;;;;5004525;28;20194;-82
2021/07/10 06:08:32;;;;;;;32.57;13.47;;;16.00;97.30;;;;;;5009910;28;20221;-83
2021/07/10 06:10:58;;;;;;;26.10;14.40;;;16.10;97.30;;;;;;5011507;28;20221;-82
2021/07/10 06:13:24;;;;;;;36.30;15.33;;;16.20;97.30;;;;;;4992358;28;20252;-82
2021/07/10 06:15:50;;;;;;;23.90;14.00;;;16.20;97.30;;;;;;5007681;28;20178;-82
2021/07/10 06:18:16;;;;;;;27.80;13.87;;;16.30;97.30;;;;;;4991446;28;21578;-82
2021/07/10 06:20:41;;;;;;;24.90;14.00;;;16.30;97.30;;;;;;4994996;28;20472;-82
2021/07/10 06:23:08;;;;;;;22.30;13.30;;;16.30;97.30;;;;;;4995032;28;20208;-82
2021/07/10 06:25:37;;;;;;;22.43;13.70;;;16.30;97.30;;;;;;4991816;28;20201;-82
2021/07/10 06:28:05;;;;;;;27.70;13.87;;;16.40;97.30;;;;;;4993550;28;20478;-83
2021/07/10 06:30:32;;;;;;;26.33;13.57;;;16.40;97.30;;;;;;4995217;28;20500;-81
2021/07/10 06:32:58;;;;;;;22.83;13.57;;;16.40;97.30;;;;;;5016690;28;20412;-82
2021/07/10 06:35:24;;;;;;;26.20;14.17;;;16.50;97.30;;;;;;5017514;28;20815;-82
2021/07/10 06:37:49;;;;;;;21.30;13.03;;;16.50;97.30;;;;;;4998088;28;20178;-83
2021/07/10 06:40:17;;;;;;;27.20;14.20;;;16.60;97.30;;;;;;5015634;28;20193;-83
2021/07/10 06:42:43;;;;;;;32.00;14.77;;;16.60;97.30;;;;;;4993205;28;20174;-82
2021/07/10 06:45:11;;;;;;;22.10;13.30;;;16.70;97.30;;;;;;4978778;28;20515;-82
2021/07/10 06:47:36;;;;;;;25.83;13.60;;;16.80;97.30;;;;;;4977158;28;20481;-82
2021/07/10 06:50:05;;;;;;;29.07;13.97;;;16.80;97.30;;;;;;4994138;28;20442;-82
2021/07/10 06:52:31;;;;;;;25.03;13.67;;;16.90;97.30;;;;;;5015040;28;20235;-83
2021/07/10 06:54:57;;;;;;;24.97;13.70;;;16.90;97.30;;;;;;4997121;28;20424;-82
2021/07/10 06:57:22;;;;;;;21.30;11.50;;;17.00;97.30;;;;;;4999407;28;20188;-83
2021/07/10 06:59:48;;;;;;;26.27;14.00;;;17.00;97.30;;;;;;5002138;28;20567;-82
2021/07/10 07:02:13;;;;;;;21.20;13.10;;;17.10;97.30;;;;;;5000959;28;20723;-83
2021/07/10 07:04:39;;;;;;;22.80;14.07;;;17.10;97.30;;;;;;4999717;28;20634;-82
2021/07/10 07:07:05;;;;;;;24.90;14.40;;;17.20;97.30;;;;;;4998771;28;20235;-83
2021/07/10 07:09:31;;;;;;;23.40;14.53;;;17.30;97.30;;;;;;4998836;28;20216;-83
2021/07/10 07:11:56;;;;;;;25.10;13.70;;;17.40;97.30;;;;;;4999231;28;20478;-83
2021/07/10 07:14:22;;;;;;;21.10;14.10;;;17.40;97.30;;;;;;4998372;28;20173;-82
2021/07/10 07:16:48;;;;;;;23.50;12.30;;;17.40;97.30;;;;;;4984604;28;20194;-83
2021/07/10 07:19:13;;;;;;;18.30;13.00;;;17.50;97.30;;;;;;5010178;28;20668;-82
2021/07/10 07:21:39;;;;;;;23.63;12.70;;;17.60;97.30;;;;;;4997928;28;20232;-82
2021/07/10 07:24:06;;;;;;;18.77;12.83;;;17.70;97.30;;;;;;4998104;28;20195;-83
2021/07/10 07:26:32;;;;;;;28.67;12.90;;;17.80;97.30;;;;;;4999376;28;20437;-82
2021/07/10 07:28:57;;;;;;;27.67;14.30;;;17.90;97.30;;;;;;4999496;28;20460;-82
2021/07/10 07:31:23;;;;;;;20.90;13.10;;;18.00;97.30;;;;;;5000543;28;20197;-81
2021/07/10 07:33:49;;;;;;;23.33;13.50;;;18.00;97.30;;;;;;4995816;28;20182;-82
2021/07/10 07:36:14;;;;;;;18.30;12.70;;;18.00;97.30;;;;;;5004080;28;20641;-81
2021/07/10 07:38:40;;;;;;;27.70;15.00;;;18.00;97.30;;;;;;5010469;28;20691;-82
2021/07/10 07:41:07;;;;;;;20.30;12.60;;;18.10;97.30;;;;;;4993348;28;20209;-83
2021/07/10 07:43:33;;;;;;;23.13;12.67;;;18.20;97.30;;;;;;4999367;28;20595;-81
2021/07/10 07:45:59;;;;;;;26.97;13.77;;;18.30;97.30;;;;;;5001051;28;20591;-82
2021/07/10 07:48:24;;;;;;;21.27;13.37;;;18.30;97.30;;;;;;5002510;28;20464;-83
2021/07/10 07:50:50;;;;;;;22.80;13.50;;;18.40;97.30;;;;;;5001652;28;20226;-82
2021/07/10 07:53:18;;;;;;;22.70;13.33;;;18.40;97.30;;;;;;4996115;28;20189;-82
2021/07/10 07:55:44;;;;;;;22.60;12.57;;;18.40;97.30;;;;;;5012560;28;20795;-83
2021/07/10 07:58:10;;;;;;;22.63;12.93;;;18.50;97.30;;;;;;4999512;28;20428;-80
2021/07/10 08:00:36;;;;;;;25.93;13.50;;;18.60;97.30;;;;;;5001635;28;20459;-82
2021/07/10 08:03:02;;;;;;;30.33;12.90;;;18.60;97.30;;;;;;4997837;28;20600;-81
2021/07/10 08:05:28;;;;;;;22.43;11.90;;;18.70;97.30;;;;;;5013846;28;20432;-82
2021/07/10 08:07:54;;;;;;;23.53;13.90;;;18.80;97.30;;;;;;4995875;28;20478;-81
2021/07/10 08:10:20;;;;;;;19.63;13.50;;;18.80;97.30;;;;;;5018834;28;20181;-81
2021/07/10 08:12:50;;;;;;;22.67;13.03;;;18.90;97.30;;;;;;5000684;28;20307;-82
2021/07/10 08:15:19;;;;;;;21.87;12.80;;;18.90;97.30;;;;;;5000227;28;20573;-82
2021/07/10 08:17:48;;;;;;;15.97;12.80;;;19.10;97.30;;;;;;4998895;28;20412;-82
2021/07/10 08:20:15;;;;;;;29.20;13.90;;;19.10;97.30;;;;;;4981321;28;20813;-82
2021/07/10 08:22:41;;;;;;;21.13;12.50;;;19.20;97.30;;;;;;4981582;28;20497;-82
2021/07/10 08:25:08;;;;;;;21.33;11.07;;;19.30;97.30;;;;;;4996165;28;20421;-82
2021/07/10 08:27:34;;;;;;;24.83;11.93;;;19.30;97.30;;;;;;4999568;28;20420;-82
2021/07/10 08:30:00;;;;;;;15.67;11.00;;;19.40;97.30;;;;;;5000434;28;20568;-81
2021/07/10 08:32:25;;;;;;;22.33;12.00;;;19.40;97.30;;;;;;5000671;28;20204;-82
2021/07/10 08:34:51;;;;;;;23.27;12.93;;;19.50;97.30;;;;;;5006686;28;20447;-82
2021/07/10 08:37:17;;;;;;;19.70;12.07;;;19.40;97.30;;;;;;5005352;28;20185;-82
2021/07/10 08:39:43;;;;;;;25.00;12.80;;;19.40;97.30;;;;;;4999941;28;20208;-82
2021/07/10 08:42:10;;;;;;;21.30;13.70;;;19.50;97.30;;;;;;4999248;28;20788;-83
2021/07/10 08:44:40;;;;;;;30.97;14.43;;;19.60;97.30;;;;;;5000018;28;20485;-82
2021/07/10 08:47:14;;;;;;;26.73;15.47;;;19.70;97.30;;;;;;4998583;28;20578;-83
2021/07/10 08:49:41;;;;;;;21.10;13.50;;;19.80;97.30;;;;;;4995290;28;20471;-83
2021/07/10 08:52:07;;;;;;;32.80;16.20;;;19.90;97.30;;;;;;4990252;28;20464;-82
2021/07/10 08:54:33;;;;;;;23.80;14.37;;;20.00;97.30;;;;;;4990815;28;20420;-82
2021/07/10 08:56:58;;;;;;;19.97;14.10;;;20.20;97.30;;;;;;4988243;28;20968;-82
2021/07/10 08:59:24;;;;;;;22.83;14.17;;;20.30;97.30;;;;;;4993557;28;20177;-82
2021/07/10 09:01:53;;;;;;;21.13;14.20;;;20.50;97.30;;;;;;5012213;28;20203;-82
2021/07/10 09:04:20;;;;;;;20.50;13.67;;;20.50;97.30;;;;;;5000242;28;20427;-82
2021/07/10 09:06:46;;;;;;;18.43;14.00;;;20.50;97.30;;;;;;4999771;28;20428;-82
2021/07/10 09:09:11;;;;;;;25.60;15.50;;;20.40;97.30;;;;;;5015905;28;20478;-83
2021/07/10 09:11:38;;;;;;;21.30;13.90;;;20.50;97.30;;;;;;4999537;28;20284;-81
2021/07/10 09:14:04;;;;;;;19.67;14.30;;;20.60;97.30;;;;;;4999061;28;20189;-81
2021/07/10 09:16:37;;;;;;;20.73;14.27;;;20.70;97.30;;;;;;4999698;28;20427;-83
2021/07/10 09:19:08;;;;;;;23.77;16.63;;;20.80;97.30;;;;;;4983874;28;20178;-82
2021/07/10 09:21:36;;;;;;;21.80;15.00;;;20.80;97.30;;;;;;4980480;28;20544;-83
2021/07/10 09:24:16;;;;;;;26.27;15.40;;;20.90;97.30;;;;;;4987654;28;21026;-83
2021/07/10 09:26:43;;;;;;;21.07;14.83;;;20.90;97.30;;;;;;5000686;28;20567;-82
2021/07/10 09:29:29;;;;;;;21.43;14.33;;;20.90;97.30;;;;;;5001609;28;20468;-82
2021/07/10 09:32:01;;;;;;;25.87;15.43;;;20.90;97.30;;;;;;5000315;28;20528;-83
2021/07/10 09:34:45;;;;;;;22.80;13.40;;;21.00;97.30;;;;;;5000178;28;20439;-83
2021/07/10 09:37:13;;;;;;;26.00;15.03;;;21.00;97.30;;;;;;5003831;28;20445;-82
2021/07/10 09:39:41;;;;;;;18.70;14.67;;;21.10;97.30;;;;;;4996663;28;20444;-83
2021/07/10 09:42:07;;;;;;;20.90;14.20;;;21.10;97.30;;;;;;4996388;28;20527;-83
2021/07/10 09:44:43;;;;;;;21.33;13.33;;;21.20;97.30;;;;;;5001506;28;20946;-82
2021/07/10 09:47:09;;;;;;;23.77;14.50;;;21.30;97.30;;;;;;5001822;28;20427;-83
2021/07/10 09:49:35;;;;;;;18.77;13.50;;;21.50;97.30;;;;;;5000828;28;21019;-82
2021/07/10 09:52:03;;;;;;;20.07;14.23;;;21.60;97.30;;;;;;5003445;28;20466;-81
2021/07/10 09:54:35;;;;;;;25.60;14.60;;;21.50;97.30;;;;;;5004006;28;20177;-83
2021/07/10 09:57:25;;;;;;;21.90;14.03;;;21.60;97.30;;;;;;5001808;28;20491;-83
2021/07/10 09:59:57;;;;;;;18.00;12.63;;;21.70;97.30;;;;;;5004657;28;20438;-84
2021/07/10 10:02:34;;;;;;;20.73;13.47;;;21.80;97.30;;;;;;5002374;28;20542;-83
2021/07/10 10:05:10;;;;;;;24.93;14.40;;;21.90;97.30;;;;;;5002730;28;20434;-82
2021/07/10 10:07:46;;;;;;;26.87;13.13;;;22.00;97.30;;;;;;5001227;28;20435;-84
2021/07/10 10:10:33;;;;;;;19.13;13.23;;;22.10;97.30;;;;;;4997580;28;20951;-84
2021/07/10 10:13:05;;;;;;;19.00;12.13;;;22.10;97.30;;;;;;4999602;28;20475;-84
2021/07/10 10:15:31;;;;;;;19.97;13.10;;;22.10;97.30;;;;;;5001211;28;20420;-84
2021/07/10 10:17:58;;;;;;;17.03;11.90;;;22.20;97.30;;;;;;4998958;28;20455;-85
2021/07/10 10:20:24;;;;;;;17.50;11.27;;;22.20;97.30;;;;;;4998693;28;20557;-84
2021/07/10 10:22:49;;;;;;;17.67;11.67;;;22.30;97.30;;;;;;5001181;28;20427;-84
2021/07/10 10:25:16;;;;;;;19.33;13.30;;;22.40;97.30;;;;;;5001187;28;20418;-84
2021/07/10 10:27:47;;;;;;;20.57;12.00;;;22.50;97.30;;;;;;4999281;28;20408;-84
2021/07/10 10:30:13;;;;;;;16.60;11.13;;;22.60;97.30;;;;;;4998006;28;20480;-86
2021/07/10 10:32:39;;;;;;;20.10;12.80;;;22.60;97.30;;;;;;5004101;28;20455;-84
2021/07/10 10:35:05;;;;;;;19.00;10.90;;;22.60;97.30;;;;;;5004246;28;20423;-85
2021/07/10 10:37:31;;;;;;;14.00;10.53;;;22.50;96.80;;;;;;5004825;28;20201;-85
2021/07/10 10:39:57;;;;;;;17.80;10.53;;;22.40;95.50;;;;;;5000570;28;20189;-85
2021/07/10 10:42:24;;;;;;;14.57;11.10;;;22.40;96.10;;;;;;4990227;28;20201;-84
2021/07/10 10:44:55;;;;;;;19.63;11.90;;;22.30;96.60;;;;;;5003734;28;20504;-85
2021/07/10 10:47:25;;;;;;;19.90;11.40;;;22.30;96.80;;;;;;5005127;28;20408;-85
2021/07/10 10:49:56;;;;;;;15.63;10.70;;;22.40;96.40;;;;;;5005498;28;20465;-85
2021/07/10 10:52:29;;;;;;;14.60;10.43;;;22.50;94.60;;;;;;5002369;28;20464;-84
2021/07/10 10:55:06;;;;;;;16.30;9.13;;;22.60;96.30;;;;;;5005166;28;20998;-84
2021/07/10 10:57:35;;;;;;;14.63;8.63;;;22.70;94.90;;;;;;5005859;28;20890;-82
2021/07/10 11:00:03;;;;;;;13.07;10.20;;;22.70;94.90;;;;;;5007576;28;20807;-84
2021/07/10 11:02:28;;;;;;;15.60;9.87;;;22.90;95.80;;;;;;5022954;28;20554;-84
2021/07/10 11:04:57;;;;;;;16.40;10.20;;;23.00;94.50;;;;;;5008253;28;20574;-85
2021/07/10 11:07:27;;;;;;;13.73;10.17;;;23.10;95.20;;;;;;5009939;28;20243;-85
2021/07/10 11:10:12;;;;;;;15.97;10.80;;;23.20;94.50;;;;;;5007602;28;20498;-85
2021/07/10 11:12:57;;;;;;;15.03;11.40;;;23.40;94.80;;;;;;5007312;28;20487;-85
2021/07/10 11:15:26;;;;;;;22.90;11.20;;;23.50;94.50;;;;;;5007499;28;20424;-85
2021/07/10 11:17:57;;;;;;;11.07;9.43;;;23.60;94.20;;;;;;5007323;28;20471;-85
2021/07/10 11:20:41;;;;;;;14.67;9.90;;;23.70;93.00;;;;;;5025043;28;20426;-84
2021/07/10 11:23:27;;;;;;;15.53;9.53;;;23.60;94.50;;;;;;5008325;28;20466;-85
2021/07/10 11:25:55;;;;;;;14.60;9.50;;;23.50;93.50;;;;;;5005669;28;20943;-85
2021/07/10 11:28:23;;;;;;;16.23;8.57;;;23.40;93.30;;;;;;5006868;28;20478;-85
2021/07/10 11:30:52;;;;;;;16.20;9.27;;;23.50;93.90;;;;;;5007713;28;20436;-84
2021/07/10 11:33:56;;;;;;;11.67;8.77;;;23.50;94.20;;;;;;5007686;28;20423;-83
2021/07/10 11:36:47;;;;;;;13.53;7.97;;;23.40;93.10;;;;;;5004472;28;20826;-84
2021/07/10 11:39:26;;;;;;;14.50;9.17;;;23.50;92.30;;;;;;5007363;28;20420;-84
2021/07/10 11:41:54;;;;;;;15.10;8.27;;;23.70;93.60;;;;;;5023078;28;20523;-83
2021/07/10 11:44:29;;;;;;;10.23;7.77;;;23.80;91.80;;;;;;4996259;28;20424;-84
2021/07/10 11:46:55;;;;;;;9.27;6.60;;;23.90;90.50;;;;;;4987768;28;20662;-84
2021/07/10 11:49:36;;;;;;;8.63;7.50;;;24.00;89.80;;;;;;4990115;28;20465;-84
2021/07/10 11:52:04;;;;;;;13.73;7.80;;;24.20;89.40;;;;;;5024477;28;20201;-84
2021/07/10 11:54:30;;;;;;;12.10;9.30;;;24.30;88.90;;;;;;4993860;28;20412;-84
2021/07/10 11:56:55;;;;;;;14.33;8.93;;;24.30;92.10;;;;;;4996584;28;20421;-84
2021/07/10 11:59:22;;;;;;;14.03;8.40;;;24.50;89.90;;;;;;5008439;28;20186;-84
2021/07/10 12:01:49;;;;;;;10.40;8.83;;;24.60;89.50;;;;;;5008775;28;20248;-85
2021/07/10 12:04:14;;;;;;;11.70;8.30;;;24.70;89.60;;;;;;5004084;28;20428;-85
2021/07/10 12:06:40;;;;;;;12.30;8.67;;;24.70;90.80;;;;;;4992920;28;20437;-84
2021/07/10 12:09:06;;;;;;;14.37;9.50;;;24.70;91.10;;;;;;4997847;28;20676;-84
2021/07/10 12:11:31;;;;;;;13.90;9.70;;;24.80;93.40;;;;;;5006750;28;20225;-84
2021/07/10 12:14:04;;;;;;;15.90;9.53;;;24.60;91.40;;;;;;5004593;28;20196;-84
2021/07/10 12:16:29;;;;;;;12.30;8.53;;;24.60;91.40;;;;;;5000679;28;20688;-84
2021/07/10 12:18:55;;;;;;;10.90;8.57;;;24.60;90.50;;;;;;4995234;28;20456;-84
2021/07/10 12:21:20;;;;;;;11.67;8.10;;;24.70;91.00;;;;;;4990889;28;20225;-84
2021/07/10 12:23:47;;;;;;;12.30;8.60;;;24.60;89.50;;;;;;5009040;28;20676;-84
2021/07/10 12:26:16;;;;;;;13.87;8.57;;;24.40;88.70;;;;;;4992229;28;20177;-84
2021/07/10 12:28:56;;;;;;;13.10;9.17;;;24.30;90.10;;;;;;4994602;28;21129;-87
2021/07/10 12:31:27;;;;;;;25.33;10.40;;;24.30;91.20;;;;;;4999830;28;20565;-84
2021/07/10 12:33:56;;;;;;;13.87;9.33;;;24.30;92.80;;;;;;4991969;28;20947;-84
2021/07/10 12:36:24;;;;;;;20.43;9.33;;;24.30;94.40;;;;;;4992780;28;20419;-85
2021/07/10 12:39:00;;;;;;;12.20;8.67;;;24.20;93.30;;;;;;4985840;28;20465;-83
2021/07/10 12:41:45;;;;;;;13.70;9.30;;;24.10;92.70;;;;;;4995925;28;20510;-84
2021/07/10 12:44:18;;;;;;;11.47;8.40;;;24.00;90.40;;;;;;4993861;28;20785;-84
2021/07/10 12:47:00;;;;;;;14.10;8.97;;;24.00;91.20;;;;;;4993245;28;20427;-85
2021/07/10 12:49:48;;;;;;;13.83;7.97;;;23.90;90.80;;;;;;4997006;28;20453;-85
2021/07/10 12:52:19;;;;;;;11.87;8.33;;;23.90;90.70;;;;;;4995272;28;20443;-86
2021/07/10 12:54:53;;;;;;;11.33;8.97;;;23.80;90.90;;;;;;4994328;28;20475;-84
2021/07/10 12:57:34;;;;;;;11.00;8.83;;;23.90;92.50;;;;;;5012010;28;20416;-85
2021/07/10 13:00:26;;;;;;;11.07;7.70;;;23.90;91.00;;;;;;4995209;28;20462;-84
2021/07/10 13:02:58;;;;;;;10.47;8.50;;;24.10;90.10;;;;;;4994555;28;20439;-84
2021/07/10 13:05:43;;;;;;;11.47;9.20;;;24.20;91.90;;;;;;5011281;28;20416;-84